Time;durP1;ratioP1;P1;durP2;ratioP2;P2;SDS_P1;SDS_P2;PMS_P1;PMS_P2;Temp;Humidity;BMP_temperature;BMP_pressure;BME280_temperature;BME280_humidity;BME280_pressure;Samples;Min_cycle;Max_cycle;Signal;HPM_P1;HPM_P2
2022/06/02 00:00:05;;;;;;;8.07;5.80;;;;;;;24.46;100.00;101091.16;5117632;28;20036;-78
2022/06/02 00:03:01;;;;;;;9.63;6.32;;;;;;;24.45;100.00;101087.66;5116892;28;20110;-78
2022/06/02 00:05:59;;;;;;;12.93;6.68;;;;;;;24.12;100.00;101081.91;5104050;28;20040;-78
2022/06/02 00:09:17;;;;;;;10.13;6.70;;;;;;;24.06;100.00;101084.16;5103542;28;20031;-78
2022/06/02 00:12:18;;;;;;;13.32;6.88;;;;;;;23.70;100.00;101075.84;5111218;28;20035;-78
2022/06/02 00:15:41;;;;;;;8.43;6.65;;;;;;;23.74;100.00;101080.03;5116933;28;20090;-78
2022/06/02 00:18:38;;;;;;;8.95;6.00;;;;;;;24.04;100.00;101073.53;5102337;28;20027;-77
2022/06/02 00:21:43;;;;;;;7.97;6.10;;;;;;;24.25;100.00;101073.88;5116671;28;20042;-77
2022/06/02 00:24:40;;;;;;;7.65;5.80;;;;;;;24.20;100.00;101079.56;5102997;28;20432;-78
2022/06/02 00:27:31;;;;;;;9.25;6.25;;;;;;;24.30;100.00;101077.13;5116846;28;20062;-78
2022/06/02 00:30:23;;;;;;;10.05;6.50;;;;;;;23.91;100.00;101077.09;5103418;28;20024;-78
2022/06/02 00:33:30;;;;;;;11.20;6.13;;;;;;;23.85;100.00;101070.34;5115861;28;20039;-78
2022/06/02 00:36:25;;;;;;;11.32;6.45;;;;;;;23.64;100.00;101062.88;5101895;28;20122;-78
2022/06/02 00:39:16;;;;;;;9.30;6.45;;;;;;;23.73;100.00;101068.47;5110836;28;20364;-78
2022/06/02 00:42:29;;;;;;;13.07;6.65;;;;;;;23.62;100.00;101064.81;5102076;28;20027;-79
2022/06/02 00:45:20;;;;;;;8.35;6.50;;;;;;;23.52;100.00;101073.41;5098331;28;20039;-77
2022/06/02 00:48:17;;;;;;;10.30;6.75;;;;;;;23.50;100.00;101073.63;5116823;28;20027;-78
2022/06/02 00:51:06;;;;;;;11.02;7.38;;;;;;;23.35;100.00;101083.50;5101301;28;20443;-78
2022/06/02 00:57:49;;;;;;;13.65;7.93;;;;;;;23.42;100.00;101087.47;5082252;28;20524;-77
2022/06/02 01:00:55;;;;;;;10.80;7.53;;;;;;;23.51;100.00;101076.19;5116265;28;20436;-78
2022/06/02 01:03:47;;;;;;;12.10;7.50;;;;;;;23.50;100.00;101078.97;5115822;28;20448;-79
2022/06/02 01:06:45;;;;;;;13.95;8.38;;;;;;;23.13;100.00;101085.78;5115283;28;20073;-77
2022/06/02 01:09:51;;;;;;;9.88;7.55;;;;;;;23.42;100.00;101072.28;5115703;28;20019;-77
2022/06/02 01:12:55;;;;;;;10.13;7.97;;;;;;;23.13;100.00;101081.28;5112230;28;20452;-77
2022/06/02 01:15:59;;;;;;;13.10;7.50;;;;;;;23.32;100.00;101076.50;5115764;28;20402;-78
2022/06/02 01:19:04;;;;;;;10.57;7.97;;;;;;;23.30;100.00;101069.53;5107558;28;20428;-77
2022/06/02 01:22:23;;;;;;;13.40;8.55;;;;;;;23.09;100.00;101062.88;5115463;28;20023;-78
2022/06/02 01:25:13;;;;;;;12.15;8.07;;;;;;;23.20;100.00;101063.91;5096891;28;20038;-78
2022/06/02 01:28:36;;;;;;;8.82;7.57;;;;;;;22.99;100.00;101067.09;5115005;28;20114;-77
2022/06/02 01:31:36;;;;;;;9.07;7.55;;;;;;;22.91;100.00;101064.03;5112501;28;20023;-77
2022/06/02 01:34:37;;;;;;;10.60;7.35;;;;;;;22.84;100.00;101062.69;5115266;28;20027;-77
2022/06/02 01:37:56;;;;;;;9.85;7.72;;;;;;;23.03;100.00;101069.44;5116197;28;20111;-77
2022/06/02 01:40:51;;;;;;;10.05;7.38;;;;;;;22.91;100.00;101064.03;5127965;28;20106;-77
2022/06/02 01:43:59;;;;;;;8.98;7.43;;;;;;;23.24;100.00;101059.25;5101809;28;20393;-79
2022/06/02 01:46:49;;;;;;;12.60;8.00;;;;;;;23.10;100.00;101060.09;5115793;28;20038;-77
2022/06/02 01:49:50;;;;;;;10.43;7.35;;;;;;;23.14;100.00;101053.59;5100783;28;20027;-77
2022/06/02 01:52:43;;;;;;;11.55;6.90;;;;;;;22.87;100.00;101060.69;5115486;28;20465;-78
2022/06/02 01:56:00;;;;;;;9.95;7.05;;;;;;;22.55;100.00;101060.97;5116511;28;20130;-77
2022/06/02 01:58:55;;;;;;;9.57;7.30;;;;;;;22.61;100.00;101068.59;5115433;28;20020;-79
2022/06/02 02:01:44;;;;;;;12.32;8.23;;;;;;;22.67;100.00;101071.75;5102702;28;20476;-77
2022/06/02 02:04:49;;;;;;;14.65;7.85;;;;;;;22.49;100.00;101062.19;5115378;28;20429;-77
2022/06/02 02:08:11;;;;;;;8.27;7.32;;;;;;;22.42;100.00;101060.81;5114656;28;20019;-77
2022/06/02 02:11:27;;;;;;;9.52;7.63;;;;;;;22.62;100.00;101060.50;5100807;28;20096;-78
2022/06/02 02:14:31;;;;;;;13.50;7.70;;;;;;;22.16;100.00;101066.00;5115282;28;20505;-77
2022/06/02 02:17:26;;;;;;;10.70;8.10;;;;;;;22.23;100.00;101070.88;5114458;28;20115;-77
2022/06/02 02:20:26;;;;;;;10.60;7.63;;;;;;;22.40;100.00;101077.88;5101312;28;20051;-78
2022/06/02 02:23:29;;;;;;;10.77;8.07;;;;;;;21.93;100.00;101074.50;5114516;28;20023;-77
2022/06/02 02:26:24;;;;;;;10.60;8.02;;;;;;;21.77;100.00;101074.53;5114791;28;20031;-77
2022/06/02 02:29:34;;;;;;;11.68;8.02;;;;;;;21.96;100.00;101077.88;5109625;28;20032;-77
2022/06/02 02:32:39;;;;;;;13.40;8.27;;;;;;;21.71;100.00;101077.56;5114338;28;20036;-77
2022/06/02 02:35:33;;;;;;;11.80;8.65;;;;;;;21.75;100.00;101073.78;5114555;28;20035;-78
2022/06/02 02:38:48;;;;;;;9.73;8.50;;;;;;;22.06;100.00;101080.84;5113440;28;20027;-78
2022/06/02 02:41:34;;;;;;;13.07;8.27;;;;;;;21.84;100.00;101078.56;5080041;28;20035;-78
2022/06/02 02:44:37;;;;;;;14.00;9.00;;;;;;;21.54;100.00;101079.44;5114405;28;20516;-78
2022/06/02 02:47:31;;;;;;;13.63;8.43;;;;;;;21.47;100.00;101078.94;5114403;28;20054;-78
2022/06/02 02:50:28;;;;;;;10.10;8.43;;;;;;;21.52;100.00;101076.88;5113931;28;20121;-77
2022/06/02 02:53:28;;;;;;;13.48;9.00;;;;;;;21.41;100.00;101089.06;5099474;28;20072;-77
2022/06/02 02:56:37;;;;;;;15.43;8.60;;;;;;;21.65;100.00;101082.34;5117795;28;20416;-77
2022/06/02 02:59:47;;;;;;;12.30;8.68;;;;;;;21.60;100.00;101085.28;5084503;28;20035;-79
2022/06/02 03:03:02;;;;;;;12.10;8.50;;;;;;;21.39;100.00;101091.84;5118423;28;20070;-76
2022/06/02 03:06:07;;;;;;;11.18;8.45;;;;;;;21.67;100.00;101084.00;5117984;28;20107;-77
2022/06/02 03:09:24;;;;;;;13.15;8.40;;;;;;;21.52;100.00;101087.53;5104524;28;20088;-77
2022/06/02 03:12:09;;;;;;;12.73;8.82;;;;;;;21.59;100.00;101082.69;5113369;28;20039;-78
2022/06/02 03:14:55;;;;;;;11.43;9.02;;;;;;;21.14;100.00;101096.78;5118458;28;20051;-78
2022/06/02 03:17:44;;;;;;;11.38;9.48;;;;;;;21.44;100.00;101094.22;5104481;28;20024;-77
2022/06/02 03:20:52;;;;;;;11.68;8.73;;;;;;;21.66;100.00;101084.91;5118396;28;20481;-77
2022/06/02 03:23:59;;;;;;;12.27;8.40;;;;;;;21.64;100.00;101092.16;5117237;28;20078;-74
2022/06/02 03:27:21;;;;;;;11.63;8.73;;;;;;;21.21;100.00;101099.97;5118102;28;20043;-75
2022/06/02 03:30:13;;;;;;;11.95;8.25;;;;;;;21.69;100.00;101089.22;5117467;28;20034;-75
2022/06/02 03:33:25;;;;;;;13.43;8.38;;;;;;;21.16;100.00;101094.91;5117998;28;20024;-74
2022/06/02 03:36:41;;;;;;;11.07;8.48;;;;;;;21.83;100.00;101098.19;5117561;28;20035;-75
2022/06/02 03:39:33;;;;;;;13.13;8.27;;;;;;;21.91;100.00;101095.94;5103962;28;20059;-75
2022/06/02 03:42:46;;;;;;;13.52;8.80;;;;;;;22.29;100.00;101086.53;5104146;28;20015;-75
2022/06/02 03:45:44;;;;;;;12.52;8.07;;;;;;;22.48;100.00;101097.00;5103675;28;20367;-74
2022/06/02 03:48:48;;;;;;;11.35;7.80;;;;;;;22.48;100.00;101102.34;5118028;28;20027;-79
2022/06/02 03:52:07;;;;;;;11.15;8.15;;;;;;;22.42;100.00;101106.22;5117418;28;20035;-77
2022/06/02 03:55:22;;;;;;;10.43;7.97;;;;;;;22.30;100.00;101101.59;5116729;28;20370;-78
2022/06/02 03:58:09;;;;;;;13.68;8.15;;;;;;;22.51;100.00;101100.34;5102930;28;20061;-79
2022/06/02 04:01:03;;;;;;;18.80;8.18;;;;;;;22.46;100.00;101106.88;5118279;28;20106;-77
2022/06/02 04:04:01;;;;;;;15.07;8.50;;;;;;;22.56;100.00;101106.28;5117259;28;20467;-77
2022/06/02 04:07:08;;;;;;;12.63;8.40;;;;;;;21.90;100.00;101109.38;5116211;28;20055;-78
2022/06/02 04:10:20;;;;;;;11.43;8.05;;;;;;;22.40;100.00;101116.13;5116600;28;20027;-79
2022/06/02 04:16:25;;;;;;;11.02;7.72;;;;;;;21.71;100.00;101125.59;5117135;28;20053;-78
2022/06/02 04:22:36;;;;;;;12.00;8.40;;;;;;;22.09;100.00;101115.34;5116795;28;20028;-77
2022/06/02 04:25:44;;;;;;;9.80;8.32;;;;;;;22.66;100.00;101122.59;5118739;28;20040;-79
2022/06/02 04:28:54;;;;;;;14.43;8.63;;;;;;;22.04;100.00;101112.09;5116452;28;20054;-81
2022/06/02 04:31:58;;;;;;;15.23;9.20;;;;;;;22.40;100.00;101123.28;5101866;28;20337;-76
2022/06/02 04:35:24;;;;;;;19.73;11.82;;;;;;;22.58;100.00;101123.06;5116482;28;20410;-77
2022/06/02 04:38:43;;;;;;;14.50;9.95;;;;;;;22.81;100.00;101129.69;5045115;28;20448;-76
2022/06/02 04:41:41;;;;;;;13.30;9.27;;;;;;;22.78;100.00;101128.06;5089168;28;20046;-75
2022/06/02 04:44:45;;;;;;;14.00;8.80;;;;;;;22.71;100.00;101125.88;5106329;28;20023;-76
2022/06/02 04:47:40;;;;;;;17.95;8.65;;;;;;;22.84;100.00;101133.03;5117271;28;20020;-76
2022/06/02 04:50:48;;;;;;;14.90;8.98;;;;;;;22.99;100.00;101137.41;5100650;28;20020;-77
2022/06/02 04:54:08;;;;;;;12.85;9.15;;;;;;;22.87;100.00;101142.69;5115657;28;20354;-77
2022/06/02 04:57:12;;;;;;;13.45;9.75;;;;;;;22.85;100.00;101142.78;5115371;28;20027;-77
2022/06/02 05:00:13;;;;;;;12.60;9.02;;;;;;;22.52;100.00;101143.94;5102978;28;20051;-77
2022/06/02 05:03:10;;;;;;;13.18;10.05;;;;;;;22.83;100.00;101150.00;5109304;28;20028;-77
2022/06/02 05:06:11;;;;;;;14.35;9.00;;;;;;;22.99;100.00;101153.47;5115885;28;20309;-77
2022/06/02 05:09:38;;;;;;;14.05;9.32;;;;;;;23.30;100.00;101155.97;5102261;28;20471;-77
2022/06/02 05:12:35;;;;;;;13.45;8.93;;;;;;;23.37;100.00;101143.09;5013816;28;20021;-77
2022/06/02 05:15:42;;;;;;;11.32;9.18;;;;;;;23.64;100.00;101145.81;5013656;28;20049;-77
2022/06/02 05:18:57;;;;;;;15.02;10.50;;;;;;;23.81;100.00;101137.53;5098207;28;20023;-78
2022/06/02 05:21:52;;;;;;;15.55;10.65;;;;;;;23.85;100.00;101147.09;5084467;28;20464;-77
2022/06/02 05:24:54;;;;;;;14.32;9.45;;;;;;;23.81;100.00;101151.78;5084820;28;20062;-78
2022/06/02 05:27:39;;;;;;;15.77;9.68;;;;;;;24.16;100.00;101157.53;5115199;28;20028;-78
2022/06/02 05:30:54;;;;;;;14.52;10.13;;;;;;;24.14;100.00;101148.75;5115297;28;20028;-78
2022/06/02 05:57:09;;;;;;;14.30;10.02;;;;;;;24.75;100.00;101159.75;5954995;22;21772;-78
2022/06/02 06:00:20;;;;;;;11.85;9.85;;;;;;;24.83;100.00;101154.72;4995445;28;20038;-79
2022/06/02 06:03:47;;;;;;;14.65;9.80;;;;;;;24.26;100.00;101159.50;4995314;28;20414;-78
2022/06/02 06:06:45;;;;;;;12.43;10.40;;;;;;;24.35;100.00;101160.72;4980076;28;20042;-78
2022/06/02 06:09:43;;;;;;;12.48;9.70;;;;;;;24.43;100.00;101153.84;4994898;28;20172;-78
2022/06/02 06:13:06;;;;;;;13.07;9.98;;;;;;;25.01;100.00;101156.09;4994523;28;20034;-78
2022/06/02 06:16:10;;;;;;;11.68;9.20;;;;;;;25.42;100.00;101165.66;4987797;28;20030;-76
2022/06/02 06:19:24;;;;;;;12.57;9.15;;;;;;;25.47;100.00;101171.53;4968294;28;20026;-79
2022/06/02 06:22:35;;;;;;;14.27;9.38;;;;;;;25.64;100.00;101167.66;4969834;28;20058;-76
2022/06/02 06:25:21;;;;;;;11.93;8.80;;;;;;;25.38;100.00;101158.78;4970679;28;20030;-75
2022/06/02 06:28:16;;;;;;;12.10;8.35;;;;;;;25.83;100.00;101163.50;4983336;28;20340;-75
2022/06/02 06:31:16;;;;;;;11.15;8.18;;;;;;;25.99;100.00;101160.56;4982640;28;20019;-76
2022/06/02 06:34:20;;;;;;;15.13;8.38;;;;;;;26.12;100.00;101147.97;4983469;28;20474;-76
2022/06/02 06:37:24;;;;;;;9.38;7.70;;;;;;;26.26;100.00;101155.81;4983275;28;20152;-75
2022/06/02 06:40:40;;;;;;;11.35;8.55;;;;;;;26.33;100.00;101149.84;4984283;28;20034;-75
2022/06/02 06:44:01;;;;;;;12.75;8.63;;;;;;;26.41;100.00;101150.13;4981936;28;20459;-76
2022/06/02 06:47:09;;;;;;;9.05;8.02;;;;;;;26.55;100.00;101158.03;4985935;28;20165;-75
2022/06/02 06:50:10;;;;;;;10.38;7.72;;;;;;;26.51;100.00;101161.91;4982623;28;20033;-75
2022/06/02 06:53:19;;;;;;;9.98;8.07;;;;;;;26.38;100.00;101162.97;4980803;28;20045;-76
2022/06/02 06:56:26;;;;;;;9.40;7.82;;;;;;;26.62;100.00;101156.63;4982822;28;20049;-77
2022/06/02 06:59:12;;;;;;;8.98;7.90;;;;;;;26.62;100.00;101158.44;4980402;28;20058;-76
2022/06/02 07:02:07;;;;;;;8.27;7.43;;;;;;;26.81;100.00;101154.19;4982281;28;20088;-76
2022/06/02 07:05:10;;;;;;;13.18;7.80;;;;;;;26.97;100.00;101154.72;4985436;28;20348;-79
2022/06/02 07:08:41;;;;;;;11.85;7.72;;;;;;;27.22;100.00;101156.38;4989920;28;20084;-78
2022/06/02 07:15:02;;;;;;;12.35;8.50;;;;;;;26.91;100.00;101167.78;4984178;28;20034;-73
2022/06/02 07:18:06;;;;;;;10.27;7.25;;;;;;;27.11;100.00;101162.56;4983494;28;20110;-72
2022/06/02 07:21:04;;;;;;;9.32;6.65;;;;;;;27.86;100.00;101157.44;4971113;28;20344;-76
2022/06/02 07:24:08;;;;;;;11.55;6.80;;;;;;;27.61;100.00;101155.00;4968358;28;20045;-79
2022/06/02 07:27:25;;;;;;;10.15;5.85;;;;;;;27.89;100.00;101165.28;4973808;28;20022;-77
2022/06/02 07:31:05;;;;;;;12.77;7.20;;;;;;;28.20;100.00;101162.59;4966357;28;20042;-77
2022/06/02 07:34:00;;;;;;;13.07;6.90;;;;;;;28.62;100.00;101163.56;4920564;29;20126;-72
2022/06/02 07:37:10;;;;;;;11.57;7.05;;;;;;;28.78;100.00;101170.22;4906507;29;20417;-79
2022/06/02 07:40:03;;;;;;;12.88;6.88;;;;;;;29.27;100.00;101173.09;4979469;28;20042;-73
2022/06/02 07:43:08;;;;;;;8.63;6.63;;;;;;;29.49;100.00;101174.75;4986593;28;20049;-74
2022/06/02 07:46:21;;;;;;;11.32;7.50;;;;;;;29.05;100.00;101175.94;4984928;28;20026;-74
2022/06/02 07:49:35;;;;;;;13.82;7.47;;;;;;;28.29;100.00;101167.22;4982115;28;20018;-78
2022/06/02 07:52:46;;;;;;;9.60;7.03;;;;;;;28.80;100.00;101172.78;4984509;28;20061;-72
2022/06/02 07:55:49;;;;;;;10.65;7.35;;;;;;;29.48;100.00;101176.59;4973698;28;20034;-72
2022/06/02 07:59:16;;;;;;;9.68;6.97;;;;;;;29.47;100.00;101176.72;4975854;28;20507;-72
2022/06/02 08:02:33;;;;;;;10.02;7.28;;;;;;;30.14;100.00;101170.56;4969552;28;20030;-75
2022/06/02 08:05:28;;;;;;;8.15;6.97;;;;;;;30.53;100.00;101175.00;4986256;28;20038;-76
2022/06/02 08:08:14;;;;;;;10.60;7.50;;;;;;;30.51;100.00;101179.69;4990534;28;20038;-75
2022/06/02 08:11:29;;;;;;;9.88;7.28;;;;;;;31.01;100.00;101178.53;4974079;28;20116;-77
2022/06/02 08:14:29;;;;;;;8.13;6.47;;;;;;;31.09;100.00;101167.81;4973181;28;20442;-74
2022/06/02 08:17:34;;;;;;;7.63;6.78;;;;;;;31.31;97.96;101172.88;4984625;28;20121;-71
2022/06/02 08:20:42;;;;;;;10.95;7.82;;;;;;;31.18;99.42;101175.03;4989171;28;20481;-71
2022/06/02 08:24:01;;;;;;;8.85;7.00;;;;;;;31.48;97.54;101173.09;4986331;28;20042;-76
2022/06/02 08:26:58;;;;;;;8.70;6.03;;;;;;;30.96;98.03;101167.28;4986218;28;20687;-73
2022/06/02 08:30:13;;;;;;;8.95;6.38;;;;;;;31.48;91.06;101175.81;4985831;28;20045;-77
2022/06/02 08:33:07;;;;;;;8.60;5.88;;;;;;;32.12;86.79;101171.19;4979560;28;20129;-80
2022/06/02 08:36:12;;;;;;;15.52;6.25;;;;;;;32.32;87.15;101170.94;4987523;28;20359;-79
2022/06/02 08:39:13;;;;;;;8.38;5.82;;;;;;;31.81;91.20;101175.28;4987207;28;20030;-78
2022/06/02 08:42:20;;;;;;;10.98;6.57;;;;;;;32.27;87.20;101177.81;4984532;28;20071;-81
2022/06/02 08:48:58;;;;;;;9.82;6.38;;;;;;;31.94;88.61;101181.19;4988128;28;20026;-73
2022/06/02 08:51:53;;;;;;;8.73;6.32;;;;;;;32.26;88.62;101181.53;4983743;28;20137;-75
2022/06/02 08:55:16;;;;;;;13.88;6.70;;;;;;;32.16;89.14;101180.72;4987124;28;20034;-70
2022/06/02 08:58:37;;;;;;;7.40;5.88;;;;;;;32.25;88.38;101179.81;4988277;28;20061;-76
2022/06/02 09:01:46;;;;;;;10.85;6.10;;;;;;;33.23;82.55;101186.81;4998509;28;20049;-80
2022/06/02 09:05:00;;;;;;;8.52;6.10;;;;;;;32.90;82.15;101176.75;4980076;28;20026;-81
2022/06/02 09:08:01;;;;;;;7.88;6.28;;;;;;;32.23;87.30;101173.69;4995463;28;20036;-78
2022/06/02 09:10:57;;;;;;;9.75;6.25;;;;;;;32.84;84.49;101186.38;4997224;28;20481;-76
2022/06/02 09:14:12;;;;;;;8.30;6.47;;;;;;;33.18;79.57;101181.00;4979282;28;20029;-78
2022/06/02 09:17:37;;;;;;;13.77;6.40;;;;;;;32.64;84.12;101178.53;4983349;28;20060;-77
2022/06/02 09:20:29;;;;;;;7.72;6.20;;;;;;;33.01;82.56;101184.59;4982892;28;20033;-75
2022/06/02 09:23:30;;;;;;;7.93;6.05;;;;;;;31.97;87.04;101181.72;4991687;28;20038;-78
2022/06/02 09:26:38;;;;;;;9.20;6.47;;;;;;;32.74;87.08;101188.28;4985748;28;20062;-75
2022/06/02 09:30:11;;;;;;;8.10;6.03;;;;;;;32.85;81.29;101182.63;4985993;28;20463;-73
2022/06/02 09:33:43;;;;;;;10.10;7.20;;;;;;;33.08;72.15;101186.53;5000630;28;20029;-71
2022/06/02 09:36:31;;;;;;;5.95;5.10;;;;;;;32.54;73.52;101181.31;4946625;28;20045;-72
2022/06/02 09:39:51;;;;;;;9.60;5.95;;;;;;;32.44;74.54;101179.69;4994797;28;20152;-71
2022/06/02 09:43:02;;;;;;;7.35;4.88;;;;;;;33.00;68.38;101175.63;4996457;28;20303;-72
2022/06/02 09:46:23;;;;;;;6.75;5.20;;;;;;;33.43;67.59;101180.16;5000639;28;20066;-72
2022/06/02 09:49:23;;;;;;;7.38;5.28;;;;;;;32.74;71.60;101173.88;4968454;28;20041;-71
2022/06/02 09:52:35;;;;;;;10.50;5.63;;;;;;;33.08;69.73;101174.81;4968899;28;20045;-73
2022/06/02 09:55:47;;;;;;;8.13;5.47;;;;;;;32.85;72.28;101169.06;4988664;28;20034;-72
2022/06/02 09:59:14;;;;;;;8.38;5.35;;;;;;;32.75;73.14;101170.97;4970907;28;20356;-72
2022/06/02 10:02:19;;;;;;;6.50;5.55;;;;;;;32.77;70.99;101168.09;4982125;28;20428;-71
2022/06/02 10:05:45;;;;;;;7.38;4.95;;;;;;;32.67;70.99;101167.34;4979394;28;20356;-71
2022/06/02 10:08:53;;;;;;;5.80;4.85;;;;;;;32.79;68.32;101163.38;4934229;28;20054;-72
2022/06/02 10:11:51;;;;;;;6.97;5.10;;;;;;;32.40;69.61;101162.88;4968481;28;20033;-72
2022/06/02 10:14:59;;;;;;;6.90;4.88;;;;;;;32.44;65.87;101158.84;4983462;28;20038;-71
2022/06/02 10:18:16;;;;;;;9.32;5.20;;;;;;;32.09;68.61;101163.38;4968229;28;20816;-71
2022/06/02 10:21:05;;;;;;;7.03;5.15;;;;;;;32.50;68.25;101150.06;4981200;28;20534;-71
2022/06/02 10:24:06;;;;;;;7.68;5.32;;;;;;;32.59;68.67;101153.72;4970738;28;20090;-71
2022/06/02 10:27:26;;;;;;;7.03;5.05;;;;;;;32.45;70.24;101148.84;4970834;28;20121;-71
2022/06/02 10:30:34;;;;;;;11.27;5.13;;;;;;;32.51;67.52;101156.34;4971120;28;20034;-73
2022/06/02 10:34:04;;;;;;;7.93;5.47;;;;;;;32.37;69.67;101156.91;4968734;28;20109;-71
2022/06/02 10:37:00;;;;;;;8.98;5.45;;;;;;;32.75;67.63;101145.69;4963339;28;20034;-72
2022/06/02 10:40:17;;;;;;;8.82;5.13;;;;;;;32.98;66.75;101149.63;4985031;28;20681;-72
2022/06/02 10:43:24;;;;;;;9.05;5.22;;;;;;;33.14;66.65;101147.84;4980108;28;20459;-72
2022/06/02 10:46:19;;;;;;;8.45;5.45;;;;;;;33.44;62.16;101151.97;4985048;28;20097;-75
2022/06/02 10:49:16;;;;;;;9.55;5.32;;;;;;;33.51;61.82;101151.13;4971224;28;20470;-77
2022/06/02 10:52:40;;;;;;;7.03;5.10;;;;;;;33.69;61.14;101142.88;4983567;28;20042;-76
2022/06/02 10:55:51;;;;;;;6.88;5.20;;;;;;;32.94;61.91;101134.69;4973110;28;20029;-77
2022/06/02 10:59:03;;;;;;;9.88;5.63;;;;;;;33.13;61.52;101129.88;4986185;28;20061;-75
2022/06/02 11:02:01;;;;;;;8.75;5.43;;;;;;;32.80;60.34;101124.34;4987913;28;20038;-75
2022/06/02 11:05:15;;;;;;;6.63;4.95;;;;;;;33.31;60.82;101124.34;5004262;28;20034;-77
2022/06/02 11:08:20;;;;;;;8.25;5.35;;;;;;;33.41;59.11;101123.25;5003030;28;20053;-77
2022/06/02 11:11:47;;;;;;;9.50;5.10;;;;;;;33.78;57.96;101114.69;5002557;28;20362;-77
2022/06/02 11:14:52;;;;;;;7.40;5.10;;;;;;;33.89;59.08;101111.72;5002726;28;20029;-78
2022/06/02 11:17:50;;;;;;;7.95;4.97;;;;;;;33.76;57.95;101111.31;5007592;28;20037;-77
2022/06/02 11:20:45;;;;;;;8.60;5.43;;;;;;;33.38;59.03;101112.69;4992426;28;20030;-77
2022/06/02 11:23:49;;;;;;;7.22;5.45;;;;;;;33.53;60.08;101108.34;5007378;28;20036;-78
2022/06/02 11:26:57;;;;;;;6.57;5.57;;;;;;;33.49;57.91;101101.53;5007395;28;20056;-77
2022/06/02 11:30:02;;;;;;;7.55;5.03;;;;;;;34.08;56.24;101095.91;4993082;28;20041;-76
2022/06/02 11:33:14;;;;;;;7.30;5.40;;;;;;;33.47;57.51;101100.84;4991781;28;20030;-75
2022/06/02 11:36:28;;;;;;;8.80;5.38;;;;;;;33.98;55.64;101095.25;5008206;28;20025;-76
2022/06/02 11:39:22;;;;;;;8.02;5.40;;;;;;;34.19;56.73;101086.59;5007517;28;20033;-77
2022/06/02 11:42:20;;;;;;;6.80;5.45;;;;;;;34.37;54.39;101090.03;5005695;28;20131;-76
2022/06/02 11:45:37;;;;;;;7.90;5.20;;;;;;;34.62;53.40;101092.56;4991127;28;20026;-74
2022/06/02 11:48:54;;;;;;;10.00;5.82;;;;;;;34.25;52.62;101094.94;5011261;28;20022;-74
2022/06/02 11:51:42;;;;;;;6.65;5.18;;;;;;;34.13;52.04;101087.25;5005084;28;20040;-74
2022/06/02 11:55:05;;;;;;;8.18;5.63;;;;;;;33.85;52.75;101078.56;5008062;28;20040;-73
2022/06/02 11:58:39;;;;;;;8.13;5.45;;;;;;;34.45;52.21;101077.28;5003882;28;20149;-72
2022/06/02 12:01:59;;;;;;;9.73;5.47;;;;;;;34.50;52.12;101074.88;4990337;28;20034;-70
2022/06/02 12:05:27;;;;;;;6.72;5.72;;;;;;;35.30;50.36;101073.88;4996545;28;20478;-75
2022/06/02 12:08:38;;;;;;;6.55;5.68;;;;;;;34.70;49.68;101068.03;4988065;28;20164;-74
2022/06/02 12:11:36;;;;;;;9.00;5.55;;;;;;;34.86;50.62;101062.59;4997325;28;20038;-77
2022/06/02 12:14:34;;;;;;;7.97;5.45;;;;;;;34.29;51.00;101054.63;4999854;28;20441;-75
2022/06/02 12:17:41;;;;;;;11.40;7.65;;;;;;;34.54;49.59;101059.91;5001755;28;20021;-75
2022/06/02 12:20:46;;;;;;;7.18;5.50;;;;;;;34.27;50.32;101056.69;4998246;28;20022;-75
2022/06/02 12:23:35;;;;;;;7.95;5.55;;;;;;;34.51;48.92;101049.34;4980383;28;20367;-72
2022/06/02 12:26:33;;;;;;;6.88;5.50;;;;;;;34.76;49.94;101059.16;4977921;28;20057;-71
2022/06/02 12:29:47;;;;;;;8.60;5.63;;;;;;;34.11;49.41;101051.22;4993831;28;20115;-71
2022/06/02 12:33:13;;;;;;;9.77;6.22;;;;;;;34.58;49.56;101055.81;4990328;28;20744;-72
2022/06/02 12:36:14;;;;;;;7.75;5.47;;;;;;;34.69;48.97;101049.16;5000971;28;20037;-73
2022/06/02 12:39:12;;;;;;;9.00;6.00;;;;;;;34.52;50.17;101047.50;4993856;28;20022;-73
2022/06/02 12:42:16;;;;;;;9.57;6.03;;;;;;;34.67;48.58;101043.88;4998067;28;20026;-71
2022/06/02 12:45:40;;;;;;;9.02;5.35;;;;;;;34.45;49.56;101036.44;4986329;28;20145;-72
2022/06/02 12:48:38;;;;;;;10.30;5.80;;;;;;;34.50;48.88;101033.19;4993733;28;20022;-73
2022/06/02 12:51:28;;;;;;;9.30;5.60;;;;;;;34.71;49.50;101028.03;4988272;28;20418;-73
2022/06/02 12:54:45;;;;;;;7.32;5.43;;;;;;;35.00;48.15;101026.44;4976156;28;20477;-74
2022/06/02 12:58:02;;;;;;;7.32;5.63;;;;;;;34.61;48.27;101030.13;4995139;28;20046;-73
2022/06/02 13:01:27;;;;;;;6.43;5.18;;;;;;;34.55;47.35;101018.03;5005875;28;20848;-75
2022/06/02 13:04:28;;;;;;;7.07;5.05;;;;;;;34.04;47.62;101021.13;5004360;28;20549;-76
2022/06/02 13:07:47;;;;;;;5.63;5.13;;;;;;;34.74;46.93;101014.94;5006866;28;20067;-74
2022/06/02 13:10:41;;;;;;;9.60;5.68;;;;;;;34.52;47.03;101017.56;5004185;28;20022;-74
2022/06/02 13:13:58;;;;;;;8.15;5.50;;;;;;;34.51;47.03;101015.88;4991585;28;20034;-74
2022/06/02 13:17:07;;;;;;;13.20;5.80;;;;;;;33.62;48.70;101017.66;4990545;28;20481;-74
2022/06/02 13:20:23;;;;;;;12.02;5.10;;;;;;;33.38;49.45;101016.72;5006255;28;20180;-74
2022/06/02 13:23:12;;;;;;;13.75;5.97;;;;;;;34.45;48.39;101008.38;5003155;28;20026;-73
2022/06/02 13:26:35;;;;;;;6.18;5.00;;;;;;;34.11;47.01;101013.16;5005795;28;20026;-75
2022/06/02 13:29:51;;;;;;;8.07;4.97;;;;;;;34.10;46.98;101015.00;5003216;28;20030;-74
2022/06/02 13:33:26;;;;;;;10.88;5.13;;;;;;;34.48;46.51;101016.19;5003329;28;20030;-75
2022/06/02 13:36:42;;;;;;;7.47;5.00;;;;;;;33.87;46.10;101015.88;5004709;28;20033;-76
2022/06/02 13:40:02;;;;;;;7.00;4.90;;;;;;;33.77;46.56;101017.84;5005212;28;20121;-74
2022/06/02 13:43:06;;;;;;;6.18;4.75;;;;;;;34.00;46.10;101021.66;5003205;28;20033;-75
2022/06/02 13:46:28;;;;;;;7.72;5.03;;;;;;;34.07;45.03;101017.22;4989288;28;21347;-75
2022/06/02 13:49:44;;;;;;;10.13;5.28;;;;;;;33.48;44.89;101010.16;5004894;28;20405;-76
2022/06/02 13:52:55;;;;;;;6.47;4.38;;;;;;;33.60;45.31;101008.84;4984073;28;20049;-75
2022/06/02 13:59:09;;;;;;;8.10;4.80;;;;;;;33.48;45.47;101010.16;5004509;28;20068;-74
2022/06/02 14:02:15;;;;;;;8.57;5.10;;;;;;;33.39;45.00;101013.03;4987915;28;20359;-75
2022/06/02 14:05:29;;;;;;;8.02;5.18;;;;;;;32.82;46.72;101008.38;5002750;28;20026;-76
2022/06/02 14:08:46;;;;;;;9.35;5.47;;;;;;;33.32;45.35;101007.41;5001519;28;20124;-72
2022/06/02 14:11:53;;;;;;;6.70;4.68;;;;;;;33.13;44.31;101007.63;5001702;28;20462;-73
2022/06/02 14:15:06;;;;;;;9.32;4.50;;;;;;;33.13;44.11;101010.34;5003528;28;20026;-73
2022/06/02 14:18:07;;;;;;;8.00;4.68;;;;;;;33.42;44.73;101008.09;5004755;28;20486;-74
2022/06/02 14:21:08;;;;;;;12.70;4.72;;;;;;;33.35;44.07;100996.19;5005210;28;20168;-74
2022/06/02 14:24:26;;;;;;;6.35;4.00;;;;;;;33.23;42.78;100999.38;5004184;28;20100;-73
2022/06/02 14:27:37;;;;;;;8.30;4.88;;;;;;;33.45;42.50;100994.19;4945221;28;20799;-73
2022/06/02 14:30:32;;;;;;;7.75;4.22;;;;;;;33.68;43.05;101005.28;5004104;28;20053;-73
2022/06/02 14:33:37;;;;;;;6.60;4.47;;;;;;;33.46;43.98;101005.88;5002212;28;20030;-74
2022/06/02 14:36:35;;;;;;;8.05;5.07;;;;;;;33.68;44.28;101000.69;5002768;28;20037;-75
2022/06/02 14:39:41;;;;;;;9.88;4.75;;;;;;;33.40;43.81;101001.13;5004074;28;20873;-74
2022/06/02 14:43:03;;;;;;;9.40;4.28;;;;;;;33.24;44.56;100993.75;5002002;28;20033;-74
2022/06/02 14:46:02;;;;;;;12.55;5.00;;;;;;;33.36;44.80;100984.31;4988966;28;20112;-72
2022/06/02 14:49:00;;;;;;;9.95;4.93;;;;;;;33.17;45.87;100984.56;4988542;28;20359;-74
2022/06/02 14:52:00;;;;;;;8.05;4.72;;;;;;;33.52;43.91;100984.34;4988445;28;20063;-74
2022/06/02 14:55:20;;;;;;;9.57;6.50;;;;;;;32.74;45.41;100986.56;5008212;28;20065;-76
2022/06/02 14:58:34;;;;;;;8.85;5.25;;;;;;;33.33;43.32;100972.91;5007485;28;20104;-76